createdAt,value
2022-11-26T20:15:04.563Z,940.25
2022-11-26T20:20:04.204Z,940.29
2022-11-26T20:25:03.131Z,940.27
2022-11-26T20:30:03.169Z,940.35
2022-11-26T20:35:02.969Z,940.43
2022-11-26T20:40:03.190Z,940.45
2022-11-26T20:45:03.059Z,940.45
2022-11-26T20:50:03.086Z,940.51
2022-11-26T20:55:03.017Z,940.51
2022-11-26T21:00:03.267Z,940.47
2022-11-26T21:05:02.970Z,940.39
2022-11-26T21:10:03.011Z,940.45
2022-11-26T21:15:03.039Z,940.43
2022-11-26T21:20:03.215Z,940.51
2022-11-26T21:25:03.037Z,940.53
2022-11-26T21:30:03.087Z,940.55
2022-11-26T21:36:32.696Z,940.55
2022-11-26T21:40:04.630Z,940.59
2022-11-26T21:45:03.206Z,940.64
2022-11-26T21:50:03.047Z,940.66
2022-11-26T21:55:03.904Z,940.74
2022-11-26T22:00:03.192Z,940.90
2022-11-26T22:05:02.954Z,940.90
2022-11-26T22:10:03.113Z,941.02
2022-11-26T22:15:03.428Z,941.09
2022-11-26T22:20:03.114Z,941.11
2022-11-26T22:25:03.058Z,941.11
2022-11-26T22:30:03.065Z,941.13
2022-11-26T22:35:03.059Z,941.17
2022-11-26T22:40:03.076Z,941.13
2022-11-26T22:45:04.059Z,941.13
2022-11-26T22:50:03.141Z,941.17
2022-11-26T22:55:02.910Z,941.17
2022-11-26T23:00:03.103Z,941.15
2022-11-26T23:05:03.050Z,941.19
2022-11-26T23:10:03.123Z,941.23
2022-11-26T23:15:02.997Z,941.31
2022-11-26T23:20:03.119Z,941.33
2022-11-26T23:25:03.069Z,941.41
2022-11-26T23:30:04.206Z,941.47
2022-11-26T23:35:03.069Z,941.49
2022-11-26T23:40:04.142Z,941.55
2022-11-26T23:45:03.045Z,941.61
2022-11-26T23:50:03.158Z,941.64
2022-11-26T23:55:03.075Z,941.64
